Time;durP1;ratioP1;P1;durP2;ratioP2;P2;SDS_P1;SDS_P2;PMS_P1;PMS_P2;Temp;Humidity;BMP_temperature;BMP_pressure;BME280_temperature;BME280_humidity;BME280_pressure;Samples;Min_cycle;Max_cycle;Signal;HPM_P1;HPM_P2
2021/03/20 00:00:53;;;;;;;6.85;6.15;;;4.20;1.00;;;;;;5002652;28;20359;-74
2021/03/20 00:03:21;;;;;;;7.15;6.45;;;4.20;1.00;;;;;;5002698;28;20200;-73
2021/03/20 00:05:48;;;;;;;8.48;6.68;;;4.20;1.00;;;;;;5036115;28;20252;-75
2021/03/20 00:08:18;;;;;;;7.30;6.30;;;4.20;1.00;;;;;;5019163;28;20292;-74
2021/03/20 00:10:46;;;;;;;8.05;6.53;;;4.20;1.00;;;;;;5036203;28;20209;-74
2021/03/20 00:13:13;;;;;;;10.88;8.40;;;4.20;1.00;;;;;;5017718;28;20299;-74
2021/03/20 00:15:39;;;;;;;9.15;7.57;;;4.20;1.00;;;;;;5018136;28;20791;-74
2021/03/20 00:18:06;;;;;;;7.50;6.38;;;4.20;1.00;;;;;;5036058;28;20285;-75
2021/03/20 00:20:37;;;;;;;7.95;6.40;;;4.30;1.00;;;;;;5035892;28;20215;-75
2021/03/20 00:23:05;;;;;;;7.20;6.22;;;4.30;99.90;;;;;;5018629;28;20242;-74
2021/03/20 00:25:34;;;;;;;8.30;7.20;;;4.20;99.90;;;;;;5018273;28;20220;-74
2021/03/20 00:28:02;;;;;;;6.40;5.70;;;4.20;99.90;;;;;;5002131;28;20298;-74
2021/03/20 00:30:32;;;;;;;9.40;7.57;;;4.20;99.90;;;;;;5018438;28;20690;-73
2021/03/20 00:32:59;;;;;;;9.27;6.45;;;4.20;99.90;;;;;;5019087;28;20726;-74
2021/03/20 00:35:25;;;;;;;10.00;6.13;;;4.20;99.90;;;;;;5035740;28;20777;-74
2021/03/20 00:37:53;;;;;;;6.60;5.90;;;4.20;99.90;;;;;;5035495;28;20249;-74
2021/03/20 00:40:26;;;;;;;8.77;6.05;;;4.10;99.90;;;;;;5002024;28;20231;-74
2021/03/20 00:42:54;;;;;;;9.00;6.50;;;4.10;99.90;;;;;;5018802;28;20585;-74
2021/03/20 00:45:24;;;;;;;8.18;6.20;;;4.10;99.90;;;;;;5017983;28;20247;-74
2021/03/20 00:47:51;;;;;;;6.15;5.53;;;4.10;99.90;;;;;;5035456;28;20283;-74
2021/03/20 00:50:21;;;;;;;7.20;5.85;;;4.00;99.90;;;;;;5035266;28;20235;-74
2021/03/20 00:52:47;;;;;;;26.75;14.85;;;4.00;1.00;;;;;;5017865;28;20630;-74
2021/03/20 00:55:14;;;;;;;10.77;8.40;;;4.00;1.00;;;;;;5035016;28;20311;-74
2021/03/20 00:57:41;;;;;;;7.43;6.53;;;3.90;1.00;;;;;;5035188;28;20627;-73
2021/03/20 01:00:13;;;;;;;7.03;6.32;;;3.90;1.00;;;;;;5035136;28;20273;-74
2021/03/20 01:02:39;;;;;;;8.75;5.47;;;3.90;1.00;;;;;;5035223;28;20283;-73
2021/03/20 01:05:08;;;;;;;7.60;6.55;;;3.90;1.00;;;;;;5017897;28;20396;-74
2021/03/20 01:07:34;;;;;;;7.15;5.68;;;3.90;1.00;;;;;;5035031;28;20286;-74
2021/03/20 01:10:01;;;;;;;6.63;5.65;;;3.80;1.00;;;;;;5017538;28;20333;-74
2021/03/20 01:12:28;;;;;;;6.90;5.63;;;3.80;1.00;;;;;;5034962;28;20294;-74
2021/03/20 01:14:54;;;;;;;8.18;6.40;;;3.80;1.00;;;;;;5017399;28;20309;-73
2021/03/20 01:17:22;;;;;;;7.90;6.07;;;3.80;1.00;;;;;;5034877;28;20249;-73
2021/03/20 01:19:48;;;;;;;6.82;6.05;;;3.80;1.00;;;;;;5034825;28;20283;-74
2021/03/20 01:22:15;;;;;;;6.45;5.85;;;3.70;1.00;;;;;;5034644;28;20674;-73
2021/03/20 01:24:41;;;;;;;6.97;6.22;;;3.70;1.00;;;;;;5034517;28;20312;-73
2021/03/20 01:27:08;;;;;;;6.57;5.90;;;3.70;1.00;;;;;;5034719;28;20337;-73
2021/03/20 01:29:35;;;;;;;7.47;5.53;;;3.70;1.00;;;;;;5034665;28;20205;-73
2021/03/20 01:32:01;;;;;;;9.85;7.00;;;3.70;1.00;;;;;;5034555;28;20683;-73
2021/03/20 01:34:29;;;;;;;8.68;6.35;;;3.60;1.00;;;;;;5034394;28;20650;-73
2021/03/20 01:36:55;;;;;;;7.75;6.60;;;3.60;1.00;;;;;;5034095;28;20314;-74
2021/03/20 01:39:22;;;;;;;10.32;6.95;;;3.60;1.00;;;;;;5034401;28;20290;-73
2021/03/20 01:41:48;;;;;;;8.75;6.72;;;3.60;1.00;;;;;;5033570;28;20306;-73
2021/03/20 01:44:18;;;;;;;9.70;6.68;;;3.60;1.00;;;;;;5034371;28;20635;-74
2021/03/20 01:46:50;;;;;;;7.13;6.32;;;3.60;1.00;;;;;;5016678;28;20623;-71
2021/03/20 01:49:20;;;;;;;6.95;6.35;;;3.60;1.00;;;;;;5034001;28;20649;-74
2021/03/20 01:51:56;;;;;;;6.53;5.93;;;3.60;1.00;;;;;;5034262;28;20302;-73
2021/03/20 01:54:26;;;;;;;7.78;6.70;;;3.60;1.00;;;;;;5017172;28;20313;-73
2021/03/20 01:56:54;;;;;;;7.05;6.25;;;3.60;1.00;;;;;;5017004;28;20613;-74
2021/03/20 01:59:21;;;;;;;7.85;7.10;;;3.50;1.00;;;;;;5033045;28;20282;-74
2021/03/20 02:01:48;;;;;;;7.28;6.25;;;3.50;1.00;;;;;;5033141;28;20311;-73
2021/03/20 02:04:15;;;;;;;6.93;6.32;;;3.50;1.00;;;;;;5033950;28;20310;-74
2021/03/20 02:06:42;;;;;;;7.85;6.10;;;3.40;1.00;;;;;;5034803;28;20233;-73
2021/03/20 02:09:11;;;;;;;7.07;6.00;;;3.40;1.00;;;;;;5034051;28;20290;-74
2021/03/20 02:11:44;;;;;;;11.13;7.20;;;3.40;1.00;;;;;;5016546;28;20242;-74
2021/03/20 02:14:22;;;;;;;7.88;7.00;;;3.40;1.00;;;;;;5016600;28;20254;-74
2021/03/20 02:16:53;;;;;;;8.15;7.30;;;3.40;1.00;;;;;;5016310;28;20240;-74
2021/03/20 02:19:43;;;;;;;10.52;7.07;;;3.40;1.00;;;;;;5033807;28;20285;-73
2021/03/20 02:22:19;;;;;;;9.15;7.35;;;3.30;1.00;;;;;;5034109;28;20741;-73
2021/03/20 02:25:15;;;;;;;7.78;6.90;;;3.30;1.00;;;;;;5033659;28;20309;-74
2021/03/20 02:28:09;;;;;;;7.47;6.75;;;3.30;1.00;;;;;;5033757;28;20281;-74
2021/03/20 02:31:00;;;;;;;7.40;6.70;;;3.30;1.00;;;;;;5033558;28;20744;-74
2021/03/20 02:33:35;;;;;;;7.15;6.35;;;3.30;1.00;;;;;;5033751;28;20728;-74
2021/03/20 02:36:13;;;;;;;8.82;7.32;;;3.30;1.00;;;;;;5032764;28;20205;-73
2021/03/20 02:38:45;;;;;;;7.03;6.07;;;3.20;1.00;;;;;;5016130;28;20285;-74
2021/03/20 02:41:24;;;;;;;9.77;7.70;;;3.20;1.00;;;;;;5033414;28;20222;-74
2021/03/20 02:43:57;;;;;;;9.13;6.50;;;3.20;1.00;;;;;;5015994;28;20313;-75
2021/03/20 02:46:28;;;;;;;7.47;6.75;;;3.20;1.00;;;;;;5033028;28;20720;-74
2021/03/20 02:49:02;;;;;;;6.75;6.05;;;3.20;1.00;;;;;;5015884;28;20295;-74
2021/03/20 02:51:39;;;;;;;9.45;7.88;;;3.20;1.00;;;;;;5015397;28;20224;-75
2021/03/20 02:54:10;;;;;;;9.68;7.72;;;3.20;1.00;;;;;;5016108;28;20743;-74
2021/03/20 02:56:43;;;;;;;10.98;7.25;;;3.10;1.00;;;;;;5032795;28;20340;-73
2021/03/20 02:59:12;;;;;;;8.10;6.75;;;3.10;1.00;;;;;;5016116;28;20620;-74
2021/03/20 03:01:42;;;;;;;9.02;7.40;;;3.10;1.00;;;;;;5015780;28;20680;-73
2021/03/20 03:04:13;;;;;;;9.63;7.22;;;3.10;1.00;;;;;;5016015;28;20633;-74
2021/03/20 03:06:48;;;;;;;7.75;6.32;;;3.00;1.00;;;;;;5016417;28;20282;-73
2021/03/20 03:09:19;;;;;;;9.23;6.75;;;3.00;30.50;;;;;;5015857;28;20202;-73
2021/03/20 03:11:50;;;;;;;8.25;7.43;;;3.00;56.90;;;;;;5016043;28;20728;-73
2021/03/20 03:14:22;;;;;;;8.75;7.32;;;3.00;95.10;;;;;;5033229;28;20314;-75
2021/03/20 03:16:50;;;;;;;8.65;7.75;;;2.90;99.90;;;;;;5016783;28;20202;-73
2021/03/20 03:19:25;;;;;;;8.68;7.78;;;2.90;99.90;;;;;;5015795;28;20203;-73
2021/03/20 03:21:55;;;;;;;9.77;7.88;;;2.80;99.90;;;;;;5016040;28;20226;-74
2021/03/20 03:24:26;;;;;;;10.90;7.95;;;2.80;99.90;;;;;;5033137;28;20220;-73
2021/03/20 03:26:55;;;;;;;9.32;7.78;;;2.80;99.90;;;;;;5033204;28;20204;-74
2021/03/20 03:29:25;;;;;;;12.20;8.60;;;2.80;99.90;;;;;;5016096;28;20536;-74
2021/03/20 03:31:59;;;;;;;9.77;8.52;;;2.80;99.90;;;;;;5033147;28;20231;-73
2021/03/20 03:34:33;;;;;;;9.30;7.25;;;2.80;99.90;;;;;;5032993;28;20694;-74
2021/03/20 03:37:07;;;;;;;9.75;8.45;;;2.70;99.90;;;;;;5015970;28;20365;-74
2021/03/20 03:39:41;;;;;;;11.10;7.55;;;2.70;99.90;;;;;;5033017;28;20195;-73
2021/03/20 03:42:11;;;;;;;11.02;8.10;;;2.70;1.00;;;;;;5032948;28;20317;-73
2021/03/20 03:44:38;;;;;;;8.77;7.20;;;2.80;99.90;;;;;;5015759;28;20243;-73
2021/03/20 03:47:06;;;;;;;9.27;7.60;;;2.70;99.90;;;;;;5032997;28;20620;-74
2021/03/20 03:49:33;;;;;;;9.57;7.95;;;2.60;99.90;;;;;;5018890;28;20286;-74
2021/03/20 03:52:00;;;;;;;8.88;6.88;;;2.60;1.00;;;;;;5036414;28;20205;-74
2021/03/20 03:54:27;;;;;;;9.30;7.82;;;2.60;1.00;;;;;;5036303;28;20314;-74
2021/03/20 03:57:12;;;;;;;7.82;6.43;;;2.60;1.00;;;;;;5036414;28;20652;-74
2021/03/20 03:59:50;;;;;;;8.80;7.05;;;2.60;1.00;;;;;;5036398;28;20205;-74
2021/03/20 04:02:23;;;;;;;7.60;6.15;;;2.50;1.00;;;;;;5036229;28;20233;-73
2021/03/20 04:05:00;;;;;;;8.20;7.05;;;2.50;1.00;;;;;;5036187;28;20238;-74
2021/03/20 04:07:39;;;;;;;6.45;5.72;;;2.50;1.00;;;;;;5019602;28;20241;-73
2021/03/20 04:10:13;;;;;;;7.30;5.57;;;2.50;1.00;;;;;;5036203;28;20209;-73
2021/03/20 04:12:47;;;;;;;7.20;5.80;;;2.40;99.90;;;;;;5036165;28;20202;-74
2021/03/20 04:15:23;;;;;;;6.80;4.65;;;2.40;99.90;;;;;;5036003;28;20759;-74
2021/03/20 04:18:00;;;;;;;3.95;3.50;;;2.30;99.90;;;;;;5036066;28;20203;-75
2021/03/20 04:20:35;;;;;;;4.82;4.20;;;2.30;1.00;;;;;;5035805;28;20294;-73
2021/03/20 04:23:06;;;;;;;4.50;4.10;;;2.30;1.00;;;;;;5018879;28;20286;-73
2021/03/20 04:25:44;;;;;;;6.00;4.55;;;2.30;1.00;;;;;;5018566;28;20352;-73
2021/03/20 04:28:22;;;;;;;5.55;4.03;;;2.30;1.00;;;;;;5035836;28;20286;-73
2021/03/20 04:30:52;;;;;;;4.32;3.70;;;2.30;1.00;;;;;;5035811;28;20289;-73
2021/03/20 04:33:24;;;;;;;4.07;3.67;;;2.30;1.00;;;;;;5018137;28;20195;-73
2021/03/20 04:35:57;;;;;;;4.85;3.92;;;2.30;1.00;;;;;;5035299;28;20310;-74
2021/03/20 04:38:25;;;;;;;4.57;3.20;;;2.30;1.00;;;;;;5018692;28;20586;-74
2021/03/20 04:40:55;;;;;;;3.72;3.40;;;2.30;1.00;;;;;;5035552;28;20219;-74
2021/03/20 04:43:27;;;;;;;4.47;3.58;;;2.30;1.00;;;;;;5018178;28;20374;-74
2021/03/20 04:45:57;;;;;;;4.05;3.20;;;2.20;1.00;;;;;;5018384;28;20310;-73
2021/03/20 04:48:27;;;;;;;5.85;3.72;;;2.20;1.00;;;;;;5018086;28;20230;-73
2021/03/20 04:50:57;;;;;;;7.82;3.85;;;2.20;1.00;;;;;;5018206;28;20223;-74
2021/03/20 04:53:25;;;;;;;3.75;3.45;;;2.20;1.00;;;;;;5018062;28;20700;-73
2021/03/20 04:55:56;;;;;;;7.88;3.78;;;2.20;1.00;;;;;;5017574;28;20223;-73
2021/03/20 04:58:34;;;;;;;3.80;3.38;;;2.20;1.00;;;;;;5017223;28;20290;-73
2021/03/20 05:01:07;;;;;;;4.70;3.88;;;2.20;1.00;;;;;;5034983;28;20223;-73
2021/03/20 05:03:38;;;;;;;5.75;3.65;;;2.20;1.00;;;;;;5035464;28;20286;-74
2021/03/20 05:06:09;;;;;;;3.80;3.13;;;2.20;1.00;;;;;;5017615;28;20195;-73
2021/03/20 05:08:37;;;;;;;5.22;3.50;;;2.10;1.00;;;;;;5035131;28;20282;-73
2021/03/20 05:11:26;;;;;;;5.10;3.78;;;2.10;1.00;;;;;;5017412;28;20282;-73
2021/03/20 05:13:58;;;;;;;3.88;3.47;;;2.10;1.00;;;;;;5019973;28;20254;-73
2021/03/20 05:16:34;;;;;;;5.45;3.55;;;2.10;1.00;;;;;;5034965;28;20286;-73
2021/03/20 05:19:00;;;;;;;4.45;3.65;;;2.00;1.00;;;;;;5018038;28;20724;-73
2021/03/20 05:21:30;;;;;;;7.53;3.45;;;2.10;1.00;;;;;;5034811;28;20746;-74
2021/03/20 05:23:59;;;;;;;5.45;3.65;;;2.00;1.00;;;;;;5017052;28;20296;-73
2021/03/20 05:26:26;;;;;;;4.45;3.10;;;2.00;1.00;;;;;;5017425;28;20199;-73
2021/03/20 05:28:53;;;;;;;4.47;3.65;;;2.00;1.00;;;;;;5017622;28;20286;-73
2021/03/20 05:31:20;;;;;;;4.05;3.53;;;2.00;1.00;;;;;;5034689;28;20312;-73
2021/03/20 05:33:49;;;;;;;6.05;3.72;;;2.00;1.00;;;;;;5017065;28;20294;-73
2021/03/20 05:36:15;;;;;;;7.60;3.63;;;2.00;1.00;;;;;;5017089;28;20310;-73
2021/03/20 05:38:44;;;;;;;6.40;3.30;;;2.00;1.00;;;;;;5034536;28;20282;-73
2021/03/20 05:41:27;;;;;;;7.50;3.65;;;2.00;1.00;;;;;;5016911;28;20223;-73
2021/03/20 05:44:06;;;;;;;5.90;3.78;;;1.90;1.00;;;;;;5016879;28;20219;-73
2021/03/20 05:46:38;;;;;;;4.07;3.35;;;1.90;1.00;;;;;;5033697;28;20282;-74
2021/03/20 05:49:20;;;;;;;4.10;3.20;;;1.90;1.00;;;;;;5034110;28;20653;-73
2021/03/20 05:52:04;;;;;;;4.85;3.47;;;1.90;1.00;;;;;;5016860;28;20200;-75
2021/03/20 05:54:43;;;;;;;7.10;4.15;;;1.90;1.00;;;;;;5034143;28;20302;-74
2021/03/20 05:57:15;;;;;;;7.32;3.65;;;1.90;1.00;;;;;;5034598;28;20219;-74
2021/03/20 05:59:49;;;;;;;5.90;3.20;;;1.80;1.00;;;;;;5034964;28;20682;-73
2021/03/20 06:02:26;;;;;;;3.95;3.20;;;1.90;1.00;;;;;;5034001;28;20237;-74
2021/03/20 06:05:02;;;;;;;5.63;4.10;;;1.80;1.00;;;;;;5034067;28;20213;-74
2021/03/20 06:07:52;;;;;;;4.25;3.50;;;1.80;1.00;;;;;;5033318;28;20191;-74
2021/03/20 06:10:31;;;;;;;5.05;3.40;;;1.80;1.00;;;;;;5032988;28;20253;-74
2021/03/20 06:13:11;;;;;;;4.35;3.80;;;1.80;1.00;;;;;;5016761;28;20202;-73
2021/03/20 06:15:52;;;;;;;5.25;3.50;;;1.80;1.00;;;;;;5033696;28;20242;-74
2021/03/20 06:18:41;;;;;;;4.10;3.22;;;1.80;1.00;;;;;;5033961;28;20664;-74
2021/03/20 06:21:16;;;;;;;4.85;3.28;;;1.90;1.00;;;;;;5033763;28;20314;-74
2021/03/20 06:24:23;;;;;;;4.63;3.38;;;1.90;1.00;;;;;;5033513;28;20297;-75
2021/03/20 06:26:53;;;;;;;4.22;3.03;;;2.00;1.00;;;;;;5016303;28;20233;-73
2021/03/20 06:29:25;;;;;;;3.63;3.15;;;2.00;1.00;;;;;;5033715;28;20338;-75
2021/03/20 06:31:54;;;;;;;4.72;4.03;;;2.10;1.00;;;;;;5033668;28;20298;-75
2021/03/20 06:34:25;;;;;;;5.78;3.45;;;2.20;1.00;;;;;;5000126;28;20258;-74
2021/03/20 06:36:56;;;;;;;5.40;3.88;;;2.20;1.00;;;;;;5033317;28;20310;-74
2021/03/20 06:39:28;;;;;;;4.80;3.97;;;2.20;1.00;;;;;;5000267;28;20199;-73
2021/03/20 06:42:00;;;;;;;4.45;3.60;;;2.30;1.00;;;;;;5016724;28;20577;-74
2021/03/20 06:44:33;;;;;;;4.28;3.40;;;2.30;1.00;;;;;;5016351;28;20230;-74
2021/03/20 06:47:00;;;;;;;3.30;3.00;;;2.30;1.00;;;;;;5016524;28;20245;-73
2021/03/20 06:49:35;;;;;;;4.68;3.13;;;2.40;1.00;;;;;;5033517;28;20329;-75
2021/03/20 06:52:04;;;;;;;5.50;3.92;;;2.40;1.00;;;;;;5033459;28;20233;-74
2021/03/20 06:54:32;;;;;;;4.43;3.53;;;2.40;1.00;;;;;;5033442;28;20345;-75
2021/03/20 06:57:00;;;;;;;6.65;3.90;;;2.50;1.00;;;;;;5016110;28;20286;-74
2021/03/20 06:59:27;;;;;;;3.60;3.25;;;2.50;1.00;;;;;;5016078;28;20290;-74
2021/03/20 07:01:59;;;;;;;3.65;2.92;;;2.60;1.00;;;;;;5033451;28;20219;-74
2021/03/20 07:04:40;;;;;;;6.03;3.60;;;2.70;1.00;;;;;;5018155;28;20246;-74
2021/03/20 07:07:18;;;;;;;3.90;3.30;;;2.90;1.00;;;;;;5034210;28;20290;-73
2021/03/20 07:09:46;;;;;;;6.15;3.85;;;3.00;1.00;;;;;;5033757;28;20192;-73
2021/03/20 07:12:16;;;;;;;4.32;3.58;;;3.10;1.00;;;;;;5015898;28;20290;-73
2021/03/20 07:14:45;;;;;;;4.85;3.75;;;3.20;1.00;;;;;;5033337;28;20221;-73
2021/03/20 07:17:29;;;;;;;4.07;3.60;;;3.30;1.00;;;;;;4998939;28;20194;-73
2021/03/20 07:19:57;;;;;;;4.72;3.65;;;3.40;99.90;;;;;;5033180;28;20591;-73
2021/03/20 07:22:30;;;;;;;4.65;3.95;;;3.50;99.90;;;;;;5017099;28;20241;-73
2021/03/20 07:24:59;;;;;;;4.20;3.40;;;3.50;99.90;;;;;;5036747;28;20225;-73
2021/03/20 07:27:33;;;;;;;4.05;3.50;;;3.60;99.90;;;;;;5036671;28;20718;-72
2021/03/20 07:30:04;;;;;;;5.68;3.92;;;3.70;99.90;;;;;;5019631;28;20288;-72
2021/03/20 07:32:37;;;;;;;5.40;4.05;;;3.80;99.90;;;;;;5036760;28;20253;-74
2021/03/20 07:35:28;;;;;;;5.03;3.75;;;3.80;99.90;;;;;;5019942;28;20228;-74
2021/03/20 07:37:58;;;;;;;3.85;3.45;;;3.90;99.90;;;;;;5018513;28;20351;-72
2021/03/20 07:40:33;;;;;;;4.32;3.80;;;4.00;99.90;;;;;;5036294;28;20282;-74
2021/03/20 07:43:16;;;;;;;5.05;3.60;;;4.10;99.90;;;;;;5003046;28;20284;-76
2021/03/20 07:45:44;;;;;;;5.55;4.15;;;4.20;99.90;;;;;;5021461;28;20314;-76
2021/03/20 07:48:26;;;;;;;6.65;4.07;;;4.30;99.90;;;;;;5019131;28;20231;-74
2021/03/20 07:51:03;;;;;;;4.97;4.45;;;4.40;99.90;;;;;;5021502;28;20192;-74
2021/03/20 07:53:31;;;;;;;5.80;4.90;;;4.50;99.90;;;;;;5018555;28;20187;-74
2021/03/20 07:56:03;;;;;;;6.28;3.63;;;4.50;99.90;;;;;;5036026;28;20250;-74
2021/03/20 07:58:38;;;;;;;6.35;4.20;;;4.60;99.90;;;;;;5003125;28;20200;-75
2021/03/20 08:01:07;;;;;;;6.20;4.40;;;4.70;99.90;;;;;;5018184;28;20223;-74
2021/03/20 08:03:47;;;;;;;5.15;3.95;;;4.80;99.90;;;;;;5018063;28;20701;-74
2021/03/20 08:06:16;;;;;;;5.30;4.05;;;4.80;99.90;;;;;;5003384;28;20196;-74
2021/03/20 08:08:43;;;;;;;6.20;4.32;;;4.90;99.90;;;;;;5036147;28;20622;-75
2021/03/20 08:11:27;;;;;;;5.60;4.43;;;5.00;99.90;;;;;;5036914;28;20227;-74
2021/03/20 08:14:00;;;;;;;4.65;3.90;;;5.20;99.90;;;;;;5002552;28;20310;-74
2021/03/20 08:16:26;;;;;;;4.90;3.67;;;5.30;99.90;;;;;;5018030;28;20199;-75
2021/03/20 08:18:56;;;;;;;5.28;4.00;;;5.30;99.90;;;;;;5036004;28;20296;-73
2021/03/20 08:21:48;;;;;;;4.22;3.72;;;5.30;99.90;;;;;;5018782;28;20263;-74
2021/03/20 08:24:35;;;;;;;5.13;4.03;;;5.30;99.90;;;;;;5035728;28;20303;-75
2021/03/20 08:27:12;;;;;;;6.35;4.72;;;5.40;99.90;;;;;;5018355;28;20292;-74
2021/03/20 08:29:51;;;;;;;5.32;4.00;;;5.40;99.90;;;;;;5019034;28;20278;-73
2021/03/20 08:32:28;;;;;;;4.72;4.22;;;5.40;99.90;;;;;;5035473;28;20657;-72
2021/03/20 08:35:05;;;;;;;4.80;4.10;;;5.40;99.90;;;;;;5034379;28;20305;-73
2021/03/20 08:38:01;;;;;;;8.80;4.55;;;5.40;99.90;;;;;;5035257;28;20314;-73
2021/03/20 08:40:41;;;;;;;8.98;4.35;;;5.50;99.90;;;;;;5033601;28;20275;-73
2021/03/20 08:43:29;;;;;;;4.90;4.20;;;5.60;99.90;;;;;;5002995;28;20220;-73
2021/03/20 08:46:03;;;;;;;6.53;5.00;;;5.60;99.90;;;;;;5034885;28;20283;-73
2021/03/20 08:48:41;;;;;;;5.03;4.30;;;5.70;99.90;;;;;;5035441;28;20224;-73
2021/03/20 08:51:23;;;;;;;4.70;3.78;;;5.70;99.90;;;;;;5035338;28;20299;-73
2021/03/20 08:53:57;;;;;;;5.43;4.30;;;5.70;99.90;;;;;;5035895;28;20228;-73
2021/03/20 08:56:45;;;;;;;7.70;4.30;;;5.70;99.90;;;;;;5035000;28;20614;-74
2021/03/20 08:59:16;;;;;;;6.20;4.68;;;5.80;99.90;;;;;;5021021;28;20458;-73
2021/03/20 09:01:47;;;;;;;5.57;4.50;;;5.80;99.90;;;;;;5016651;28;20218;-73
2021/03/20 09:04:16;;;;;;;4.78;4.38;;;5.80;99.90;;;;;;5017956;28;20256;-73
2021/03/20 09:06:46;;;;;;;4.30;3.90;;;5.80;99.90;;;;;;5035092;28;20193;-73
2021/03/20 09:09:19;;;;;;;4.53;4.13;;;5.80;99.90;;;;;;5035107;28;20282;-73
2021/03/20 09:11:55;;;;;;;6.20;4.18;;;5.80;99.90;;;;;;5017616;28;20341;-73
2021/03/20 09:14:25;;;;;;;4.55;3.95;;;5.80;99.90;;;;;;5034827;28;20719;-73
2021/03/20 09:16:56;;;;;;;5.18;4.10;;;5.80;99.90;;;;;;5017713;28;20291;-73
2021/03/20 09:19:27;;;;;;;5.45;4.20;;;5.80;99.90;;;;;;5034875;28;20198;-73
2021/03/20 09:21:58;;;;;;;3.95;3.40;;;5.80;99.90;;;;;;5001330;28;20313;-72
2021/03/20 09:24:28;;;;;;;4.57;3.53;;;5.80;99.90;;;;;;5001878;28;20314;-73
2021/03/20 09:26:57;;;;;;;5.97;3.83;;;5.80;99.90;;;;;;5034813;28;20289;-74
2021/03/20 09:29:26;;;;;;;5.10;3.22;;;5.70;99.90;;;;;;5034680;28;20200;-73
2021/03/20 09:32:11;;;;;;;4.32;3.38;;;5.70;99.90;;;;;;5001147;28;20204;-74
2021/03/20 09:34:49;;;;;;;3.80;3.00;;;5.80;99.90;;;;;;5004063;28;20235;-74
2021/03/20 09:37:46;;;;;;;3.45;2.80;;;5.80;99.90;;;;;;5034147;28;20229;-74
2021/03/20 09:40:36;;;;;;;4.82;3.30;;;5.70;99.90;;;;;;5019273;28;20217;-74
2021/03/20 09:43:19;;;;;;;5.15;3.35;;;5.80;99.90;;;;;;5003572;28;20314;-73
2021/03/20 09:45:47;;;;;;;5.88;3.65;;;5.80;96.30;;;;;;5019305;28;20309;-74
2021/03/20 09:48:43;;;;;;;3.40;3.08;;;5.70;96.00;;;;;;5016776;28;20652;-74
2021/03/20 09:51:39;;;;;;;4.45;3.63;;;5.60;93.90;;;;;;5007378;28;20713;-73
2021/03/20 09:54:41;;;;;;;3.70;3.38;;;5.60;93.30;;;;;;5020106;28;20308;-74
2021/03/20 09:57:37;;;;;;;4.55;2.88;;;5.60;91.00;;;;;;5008358;28;20198;-73
2021/03/20 10:00:06;;;;;;;6.05;3.30;;;5.70;77.60;;;;;;5033234;28;20232;-74
2021/03/20 10:02:48;;;;;;;4.68;2.83;;;5.70;74.90;;;;;;5034145;28;20310;-74
2021/03/20 10:05:27;;;;;;;4.57;2.97;;;5.70;68.10;;;;;;5034071;28;20313;-74
2021/03/20 10:08:00;;;;;;;3.80;3.05;;;5.70;68.30;;;;;;5016577;28;20285;-74
2021/03/20 10:10:44;;;;;;;3.90;2.95;;;5.70;64.70;;;;;;5016480;28;20207;-74
2021/03/20 10:13:16;;;;;;;9.02;3.25;;;5.80;55.70;;;;;;5016581;28;20290;-73
2021/03/20 10:16:01;;;;;;;4.30;3.30;;;5.80;51.60;;;;;;5034020;28;20306;-73
2021/03/20 10:18:31;;;;;;;5.95;3.28;;;5.80;50.00;;;;;;5018995;28;20677;-74
2021/03/20 10:21:17;;;;;;;6.40;3.38;;;5.90;46.40;;;;;;5000466;28;20290;-73
2021/03/20 10:23:48;;;;;;;4.53;2.70;;;6.00;43.80;;;;;;5016258;28;20290;-74
2021/03/20 10:26:22;;;;;;;5.18;3.40;;;6.00;47.70;;;;;;5016429;28;20206;-73
2021/03/20 10:28:53;;;;;;;4.88;3.55;;;6.00;45.20;;;;;;5033773;28;20332;-74
2021/03/20 10:31:21;;;;;;;4.68;3.80;;;6.00;47.00;;;;;;5016336;28;20199;-74
2021/03/20 10:33:49;;;;;;;4.95;4.00;;;6.10;46.00;;;;;;5033724;28;20699;-73
2021/03/20 10:36:27;;;;;;;4.30;3.78;;;6.20;45.40;;;;;;5033531;28;20286;-74
2021/03/20 10:38:54;;;;;;;4.60;3.25;;;6.20;42.80;;;;;;5033788;28;20278;-74
2021/03/20 10:41:24;;;;;;;7.18;3.85;;;6.20;43.10;;;;;;5033964;28;20654;-74
2021/03/20 10:43:54;;;;;;;4.22;3.50;;;6.20;40.00;;;;;;5017285;28;20555;-74
2021/03/20 10:46:25;;;;;;;3.50;3.20;;;6.20;38.00;;;;;;5016207;28;20191;-74
2021/03/20 10:48:54;;;;;;;3.97;3.08;;;6.20;36.90;;;;;;5036131;28;20202;-73
2021/03/20 10:51:23;;;;;;;4.18;3.03;;;6.20;29.80;;;;;;5033138;28;20199;-73
2021/03/20 10:53:52;;;;;;;3.53;2.60;;;6.30;24.60;;;;;;5014947;28;20310;-73
2021/03/20 10:56:36;;;;;;;3.33;2.47;;;6.40;14.90;;;;;;5000690;28;20697;-73
2021/03/20 10:59:14;;;;;;;4.30;2.90;;;6.40;11.90;;;;;;5022469;28;20630;-73
2021/03/20 11:01:41;;;;;;;3.08;2.55;;;6.40;12.40;;;;;;5037409;28;20230;-73
2021/03/20 11:04:14;;;;;;;4.43;2.78;;;6.40;12.70;;;;;;5037456;28;20219;-73
2021/03/20 11:06:51;;;;;;;5.03;3.50;;;6.40;13.10;;;;;;5036856;28;20582;-73
2021/03/20 11:09:22;;;;;;;5.40;3.42;;;6.50;12.30;;;;;;5037332;28;20200;-75
2021/03/20 11:11:51;;;;;;;4.95;3.10;;;6.60;13.00;;;;;;5037313;28;20307;-74
2021/03/20 11:14:21;;;;;;;4.38;3.28;;;6.60;14.30;;;;;;5036991;28;20307;-74
2021/03/20 11:16:51;;;;;;;4.18;3.40;;;6.70;14.10;;;;;;5019775;28;20255;-74
2021/03/20 11:19:27;;;;;;;3.30;3.00;;;6.80;15.80;;;;;;5019661;28;20197;-75
2021/03/20 11:22:00;;;;;;;3.20;2.90;;;6.90;13.30;;;;;;5019600;28;20231;-74
2021/03/20 11:24:32;;;;;;;3.97;2.85;;;6.90;12.60;;;;;;5036980;28;20291;-75
2021/03/20 11:27:11;;;;;;;3.53;2.70;;;6.90;11.20;;;;;;5019700;28;20281;-74
2021/03/20 11:29:38;;;;;;;3.33;2.70;;;7.00;10.60;;;;;;5037099;28;20590;-74
2021/03/20 11:32:17;;;;;;;4.57;3.35;;;7.10;7.00;;;;;;5037039;28;20292;-74
2021/03/20 11:34:44;;;;;;;4.00;2.40;;;7.20;7.20;;;;;;5018644;28;20309;-74
2021/03/20 11:37:20;;;;;;;2.87;2.60;;;7.10;15.40;;;;;;5036642;28;20308;-74
2021/03/20 11:39:53;;;;;;;3.20;2.58;;;7.20;7.30;;;;;;5019354;28;20461;-75
2021/03/20 11:42:24;;;;;;;5.22;2.97;;;7.20;5.30;;;;;;5036251;28;20250;-74
2021/03/20 11:44:52;;;;;;;3.47;2.75;;;7.30;5.80;;;;;;5019146;28;20279;-74
2021/03/20 11:47:23;;;;;;;4.17;2.60;;;7.30;4.20;;;;;;5036167;28;20235;-74
2021/03/20 11:49:52;;;;;;;4.20;3.03;;;7.30;3.10;;;;;;5019178;28;21008;-74
2021/03/20 11:52:23;;;;;;;6.43;3.15;;;7.40;3.80;;;;;;5019364;28;20499;-74
2021/03/20 11:55:00;;;;;;;5.90;3.30;;;7.50;3.20;;;;;;5035098;28;20305;-74
2021/03/20 11:57:32;;;;;;;4.10;2.87;;;7.50;2.40;;;;;;5035836;28;20538;-74
2021/03/20 11:59:59;;;;;;;6.55;3.80;;;7.60;2.90;;;;;;5018944;28;20524;-73
2021/03/20 12:02:38;;;;;;;4.60;2.70;;;7.60;3.30;;;;;;5018430;28;20223;-73
2021/03/20 12:05:10;;;;;;;2.80;2.50;;;7.60;3.40;;;;;;5018727;28;20462;-74
2021/03/20 12:07:37;;;;;;;5.53;3.33;;;7.70;1.00;;;;;;5018490;28;20208;-73
2021/03/20 12:10:21;;;;;;;3.73;2.90;;;7.80;1.00;;;;;;5034994;28;20523;-74
2021/03/20 12:12:49;;;;;;;3.63;2.97;;;7.80;1.00;;;;;;5021191;28;20536;-73
2021/03/20 12:15:21;;;;;;;3.40;2.90;;;7.70;1.00;;;;;;5018211;28;20511;-72
2021/03/20 12:17:49;;;;;;;3.33;2.60;;;7.70;1.00;;;;;;5018758;28;20285;-73
2021/03/20 12:20:32;;;;;;;3.20;2.40;;;7.70;1.00;;;;;;5036107;28;20536;-72
2021/03/20 12:23:13;;;;;;;3.63;2.50;;;7.70;1.00;;;;;;5002837;28;20523;-73
2021/03/20 12:25:49;;;;;;;3.63;2.00;;;7.60;1.00;;;;;;5035548;28;20456;-73
2021/03/20 12:28:24;;;;;;;2.30;2.10;;;7.60;1.00;;;;;;5035291;28;20531;-74
2021/03/20 12:31:03;;;;;;;3.50;2.22;;;7.50;1.00;;;;;;5018348;28;20487;-73
2021/03/20 12:33:42;;;;;;;4.32;3.03;;;7.50;1.00;;;;;;5018186;28;20190;-74
2021/03/20 12:36:17;;;;;;;3.25;2.25;;;7.40;1.00;;;;;;5019833;28;20298;-74
2021/03/20 12:38:44;;;;;;;2.90;2.33;;;7.50;1.00;;;;;;5018766;28;20285;-74
2021/03/20 12:41:17;;;;;;;2.88;2.25;;;7.40;1.00;;;;;;5035597;28;20886;-75
2021/03/20 12:43:44;;;;;;;5.95;2.20;;;7.40;1.00;;;;;;5018186;28;20240;-74
2021/03/20 12:46:12;;;;;;;2.27;1.87;;;7.30;1.00;;;;;;5035321;28;20198;-73
2021/03/20 12:48:41;;;;;;;2.65;1.65;;;7.40;1.00;;;;;;5034981;28;20438;-71
2021/03/20 12:51:17;;;;;;;3.53;2.53;;;7.30;1.00;;;;;;5017925;28;20607;-74
2021/03/20 12:53:43;;;;;;;2.55;2.00;;;7.30;1.00;;;;;;5017761;28;20289;-74
2021/03/20 12:56:10;;;;;;;3.83;1.73;;;7.20;1.00;;;;;;5035857;28;20292;-74
2021/03/20 12:58:36;;;;;;;3.08;2.30;;;7.20;1.00;;;;;;5035317;28;20448;-73
2021/03/20 13:01:04;;;;;;;2.75;2.55;;;7.20;1.00;;;;;;5035265;28;20229;-73
2021/03/20 13:03:31;;;;;;;2.30;1.92;;;7.30;1.00;;;;;;5017692;28;20647;-74
2021/03/20 13:05:59;;;;;;;1.95;1.75;;;7.30;1.00;;;;;;5034564;28;20200;-75
2021/03/20 13:08:26;;;;;;;4.60;2.40;;;7.30;1.00;;;;;;5034891;28;20285;-74
2021/03/20 13:10:53;;;;;;;3.33;2.07;;;7.20;1.00;;;;;;5035100;28;20463;-74
2021/03/20 13:13:20;;;;;;;3.80;2.42;;;7.20;1.00;;;;;;5034587;28;20539;-74
2021/03/20 13:15:47;;;;;;;2.97;2.50;;;7.20;1.00;;;;;;5034961;28;20308;-74
2021/03/20 13:18:14;;;;;;;2.17;1.80;;;7.20;1.00;;;;;;5035036;28;20202;-75
2021/03/20 13:20:42;;;;;;;2.97;2.05;;;7.20;1.00;;;;;;5034411;28;20536;-74
2021/03/20 13:23:09;;;;;;;2.30;2.03;;;7.20;1.00;;;;;;5034286;28;20710;-74
2021/03/20 13:25:38;;;;;;;2.63;2.03;;;7.10;1.00;;;;;;5034642;28;20768;-74
2021/03/20 13:28:06;;;;;;;3.45;2.50;;;7.10;1.00;;;;;;5034862;28;20202;-74
2021/03/20 13:30:36;;;;;;;2.80;2.10;;;7.10;1.00;;;;;;5035512;28;20234;-75
2021/03/20 13:33:02;;;;;;;3.45;2.50;;;7.10;1.00;;;;;;5018017;28;20646;-74